Time;durP1;ratioP1;P1;durP2;ratioP2;P2;SDS_P1;SDS_P2;PMS_P1;PMS_P2;Temp;Humidity;BMP_temperature;BMP_pressure;BME280_temperature;BME280_humidity;BME280_pressure;Samples;Min_cycle;Max_cycle;Signal;HPM_P1;HPM_P2
2024/01/28 00:02:03;;;;;;;20.60;12.20;;;;;;;-147.86;100.00;75548.20;105054;1263;72743;-56
2024/01/28 00:04:31;;;;;;;21.70;12.20;;;;;;;-147.86;100.00;75603.46;105048;1266;59824;-57
2024/01/28 00:06:59;;;;;;;17.10;11.20;;;;;;;-147.86;100.00;75768.10;105238;1266;59218;-55
2024/01/28 00:09:27;;;;;;;17.30;11.80;;;;;;;-147.86;100.00;75927.61;105253;1261;71002;-60
2024/01/28 00:11:55;;;;;;;21.00;13.00;;;;;;;-147.86;100.00;75861.66;105516;1259;63116;-58
2024/01/28 00:14:23;;;;;;;19.30;12.10;;;;;;;-147.86;100.00;75954.45;105457;1260;71413;-56
2024/01/28 00:16:51;;;;;;;23.70;13.60;;;;;;;-147.86;100.00;75991.56;105396;1260;59689;-56
2024/01/28 00:19:19;;;;;;;22.00;13.10;;;;;;;-147.86;100.00;76055.92;105449;1260;59983;-58
2024/01/28 00:21:47;;;;;;;22.80;13.20;;;;;;;-147.86;100.00;76144.37;105411;1259;71782;-56
2024/01/28 00:24:15;;;;;;;21.40;12.50;;;;;;;-147.86;100.00;76318.89;105948;1250;63975;-55
2024/01/28 00:26:43;;;;;;;28.70;14.60;;;;;;;-147.86;100.00;76581.86;105931;1250;72658;-57
2024/01/28 00:29:11;;;;;;;32.90;16.40;;;;;;;-147.86;100.00;76675.45;106001;1251;59677;-56
2024/01/28 00:31:38;;;;;;;39.30;17.30;;;;;;;-147.86;100.00;76654.91;106009;1250;59659;-58
2024/01/28 00:34:06;;;;;;;41.90;19.40;;;;;;;-147.86;100.00;76670.31;105934;1251;72803;-57
2024/01/28 00:36:34;;;;;;;47.20;21.30;;;;;;;-147.86;100.00;76758.77;105960;1251;63163;-58
2024/01/28 00:39:03;;;;;;;38.40;18.00;;;;;;;-147.86;100.00;76598.45;105925;1251;72727;-55
2024/01/28 00:41:31;;;;;;;34.30;16.50;;;;;;;-147.86;100.00;76590.56;105969;1251;59781;-56
2024/01/28 00:44:03;;;;;;;37.70;16.60;;;;;;;-147.86;100.00;76565.29;105992;1256;59704;-57
2024/01/28 00:46:34;;;;;;;46.40;19.40;;;;;;;-147.86;100.00;76816.04;105861;1251;71799;-55
2024/01/28 00:49:02;;;;;;;66.70;21.60;;;;;;;-147.86;100.00;76849.21;105894;1256;64408;-57
2024/01/28 00:51:33;;;;;;;59.20;22.80;;;;;;;-147.86;100.00;76884.35;105900;1251;72642;-57
2024/01/28 00:54:01;;;;;;;75.20;25.20;;;;;;;-147.86;100.00;76909.64;105870;1254;59734;-58
2024/01/28 00:56:29;;;;;;;75.00;24.10;;;;;;;-147.86;100.00;76980.71;105863;1256;59712;-57
2024/01/28 00:58:57;;;;;;;65.30;21.80;;;;;;;-147.86;100.00;77045.09;105879;1253;73053;-58
2024/01/28 01:01:25;;;;;;;43.30;18.60;;;;;;;-147.86;100.00;77107.88;105886;1251;63215;-57
2024/01/28 01:03:53;;;;;;;35.50;16.70;;;;;;;-147.86;100.00;77069.96;105938;1254;71371;-58
2024/01/28 01:06:21;;;;;;;35.80;16.80;;;;;;;-147.86;100.00;77039.56;105907;1253;59819;-55
2024/01/28 01:08:49;;;;;;;27.00;14.70;;;;;;;-147.86;100.00;77199.51;105926;1257;59683;-55
2024/01/28 01:11:17;;;;;;;24.30;13.90;;;;;;;-147.86;100.00;77129.59;105830;1253;70543;-56
2024/01/28 01:13:45;;;;;;;25.80;15.60;;;;;;;-147.86;100.00;77097.61;105893;1251;63590;-57
2024/01/28 01:16:13;;;;;;;24.70;14.40;;;;;;;-147.86;100.00;77287.97;105883;1252;71385;-56
2024/01/28 01:18:40;;;;;;;28.90;16.30;;;;;;;-147.86;100.00;77294.28;105862;1254;59755;-57
2024/01/28 01:21:08;;;;;;;42.00;18.50;;;;;;;-147.86;100.00;77214.11;105879;1257;60105;-58
2024/01/28 01:23:37;;;;;;;33.70;16.80;;;;;;;-147.86;100.00;77109.85;105842;1257;72594;-56
2024/01/28 01:26:04;;;;;;;24.20;14.00;;;;;;;-147.86;100.00;77122.89;105839;1253;62082;-57
2024/01/28 01:28:32;;;;;;;25.20;14.40;;;;;;;-147.86;100.00;77069.57;105839;1253;71456;-55
2024/01/28 01:31:01;;;;;;;20.70;12.60;;;;;;;-147.86;100.00;77190.02;105906;1253;59714;-56
2024/01/28 01:33:29;;;;;;;41.00;19.80;;;;;;;-147.86;100.00;77310.88;105925;1254;60084;-56
2024/01/28 01:35:57;;;;;;;58.50;23.90;;;;;;;-147.86;100.00;77237.42;105882;1251;72210;-57
2024/01/28 01:38:24;;;;;;;54.60;23.50;;;;;;;-147.86;100.00;77225.96;105850;1252;63194;-56
2024/01/28 01:40:52;;;;;;;48.80;22.20;;;;;;;-147.86;100.00;77451.88;105840;1253;71390;-56
2024/01/28 01:48:52;;;;;;;21.60;13.40;;;;;;;-147.86;100.00;83476.46;102820;1290;600246;-56
2024/01/28 01:51:21;;;;;;;22.30;13.60;;;;;;;-147.86;100.00;77395.02;105173;1264;59746;-57
2024/01/28 01:53:50;;;;;;;19.90;12.20;;;;;;;-147.86;100.00;77498.09;105154;1264;59962;-56
2024/01/28 01:56:17;;;;;;;23.80;12.90;;;;;;;-147.86;100.00;77509.94;105135;1268;70308;-57
2024/01/28 01:58:46;;;;;;;22.80;13.80;;;;;;;-147.86;100.00;77487.02;105189;1267;63194;-57
2024/01/28 02:01:16;;;;;;;23.40;13.00;;;;;;;-147.86;100.00;77385.52;105170;1264;71379;-55
2024/01/28 02:03:45;;;;;;;23.40;12.70;;;;;;;-147.86;100.00;77421.09;105075;1262;60767;-57
2024/01/28 02:06:17;;;;;;;19.70;13.00;;;;;;;-147.86;100.00;77683.73;105305;1266;59291;-53
2024/01/28 02:08:45;;;;;;;22.40;13.10;;;;;;;-147.86;100.00;77628.84;105242;1267;70935;-58
2024/01/28 02:11:12;;;;;;;22.30;12.80;;;;;;;-147.86;100.00;77596.05;105282;1261;62305;-57
2024/01/28 02:13:40;;;;;;;22.10;12.80;;;;;;;-147.86;100.00;77637.52;105205;1263;71363;-57
2024/01/28 02:16:08;;;;;;;22.70;12.60;;;;;;;-147.86;100.00;77887.95;105246;1264;59974;-53
2024/01/28 02:18:35;;;;;;;19.60;12.60;;;;;;;-147.86;100.00;78042.00;105237;1266;59551;-57
2024/01/28 02:21:04;;;;;;;18.50;11.50;;;;;;;-147.86;100.00;78040.41;105310;1266;71774;-56
2024/01/28 02:23:32;;;;;;;18.80;11.30;;;;;;;-147.86;100.00;77718.88;105272;1261;64361;-56
2024/01/28 02:26:00;;;;;;;18.80;11.30;;;;;;;-147.86;100.00;77376.83;105276;1267;71430;-57
2024/01/28 02:28:27;;;;;;;19.40;11.10;;;;;;;-147.86;100.00;77224.39;105220;1261;60016;-55
2024/01/28 02:30:55;;;;;;;17.00;10.40;;;;;;;-147.86;100.00;77465.70;105268;1266;59685;-58
2024/01/28 02:49:47;;;;;;;20.80;12.30;;;;;;;-147.86;100.00;83013.62;102783;1303;601334;-54
2024/01/28 02:52:15;;;;;;;20.30;11.80;;;;;;;-147.86;100.00;76134.91;104834;1270;59359;-55
2024/01/28 02:54:43;;;;;;;25.00;12.70;;;;;;;-147.86;100.00;76689.27;104850;1271;59177;-57
2024/01/28 02:57:11;;;;;;;21.00;13.40;;;;;;;-147.86;100.00;76833.41;104842;1267;71053;-57
2024/01/28 02:59:38;;;;;;;20.00;12.00;;;;;;;-147.86;100.00;77066.41;104833;1267;63231;-57
2024/01/28 03:02:06;;;;;;;25.80;14.70;;;;;;;-147.86;100.00;77340.90;104840;1270;71708;-56
2024/01/28 03:04:37;;;;;;;23.60;13.30;;;;;;;-147.86;100.00;77383.14;105012;1270;215167;-56
2024/01/28 03:07:06;;;;;;;22.90;13.90;;;;;;;-147.86;100.00;77261.52;105161;1269;59322;-55
2024/01/28 03:09:34;;;;;;;23.60;14.10;;;;;;;-147.86;100.00;77294.29;105227;1264;70741;-57
2024/01/28 03:12:02;;;;;;;19.70;12.80;;;;;;;-147.86;100.00;77210.55;108824;1263;63445;-57
2024/01/28 03:14:30;;;;;;;24.00;13.20;;;;;;;-147.86;100.00;77150.92;108817;1262;71387;-57
2024/01/28 03:16:57;;;;;;;24.10;13.80;;;;;;;-147.86;100.00;77308.91;108798;1263;59247;-57
2024/01/28 03:19:26;;;;;;;24.50;14.20;;;;;;;-147.86;100.00;77696.77;108807;1263;60085;-58
2024/01/28 03:21:54;;;;;;;24.90;13.90;;;;;;;-147.86;100.00;77670.69;108811;1263;71474;-57
2024/01/28 03:24:22;;;;;;;24.10;13.70;;;;;;;-147.86;100.00;77786.83;108805;1264;64426;-58
2024/01/28 03:26:50;;;;;;;29.10;15.00;;;;;;;-147.86;100.00;77963.39;108833;1263;72662;-58
2024/01/28 03:29:18;;;;;;;27.90;16.10;;;;;;;-147.86;100.00;78102.05;108793;1263;57983;-58
2024/01/28 03:31:46;;;;;;;27.60;16.10;;;;;;;-147.86;100.00;78356.05;108801;1263;59999;-58
2024/01/28 03:34:15;;;;;;;26.00;14.20;;;;;;;-147.86;100.00;78386.88;108817;1263;71773;-58
2024/01/28 03:38:14;;;;;;;27.10;15.80;;;;;;;-147.86;100.00;85980.79;102720;1293;600255;-58
2024/01/28 03:40:43;;;;;;;26.60;15.60;;;;;;;-147.86;100.00;78226.85;105045;1267;59379;-59
2024/01/28 03:43:11;;;;;;;26.80;14.80;;;;;;;-147.86;100.00;77668.70;104816;1267;60876;-58
2024/01/28 03:45:38;;;;;;;26.00;15.20;;;;;;;-147.86;100.00;77150.90;104819;1267;70980;-58
2024/01/28 03:48:07;;;;;;;21.00;13.20;;;;;;;-147.86;100.00;76678.20;104786;1272;63140;-55
2024/01/28 03:50:35;;;;;;;27.80;15.20;;;;;;;-147.86;100.00;76324.38;104812;1267;71605;-56
2024/01/28 03:53:03;;;;;;;21.80;14.10;;;;;;;-147.86;100.00;76082.35;104870;1264;312444;-56
2024/01/28 03:55:30;;;;;;;22.70;14.00;;;;;;;-147.86;100.00;75746.38;105147;1269;59339;-54
2024/01/28 03:57:58;;;;;;;22.70;13.60;;;;;;;-147.86;100.00;75578.19;105063;1264;71003;-57
2024/01/28 04:00:28;;;;;;;22.20;13.30;;;;;;;-147.86;100.00;75619.25;104992;1263;64492;-58
2024/01/28 04:02:57;;;;;;;22.80;14.20;;;;;;;-147.86;100.00;75576.61;105030;1266;71489;-55
2024/01/28 04:05:25;;;;;;;24.70;14.40;;;;;;;-147.86;100.00;75492.91;105032;1264;59826;-58
2024/01/28 04:07:52;;;;;;;22.60;14.50;;;;;;;-147.86;100.00;75635.04;104998;1269;59658;-58
2024/01/28 04:10:20;;;;;;;21.90;14.20;;;;;;;-147.86;100.00;75486.20;104998;1267;72638;-56
2024/01/28 04:12:48;;;;;;;21.00;13.70;;;;;;;-147.86;100.00;75630.30;105106;1266;63181;-54
2024/01/28 04:15:15;;;;;;;19.80;12.70;;;;;;;-147.86;100.00;75938.65;105128;1265;71410;-57
2024/01/28 04:17:44;;;;;;;20.10;13.20;;;;;;;-147.86;100.00;76036.56;104956;1268;59688;-57
2024/01/28 04:20:12;;;;;;;20.60;12.40;;;;;;;-147.86;100.00;76079.20;105144;1269;59622;-57
2024/01/28 04:22:40;;;;;;;21.00;13.10;;;;;;;-147.86;100.00;76233.98;105139;1267;71741;-58
2024/01/28 04:25:08;;;;;;;17.70;11.50;;;;;;;-147.86;100.00;76480.37;105138;1266;63227;-57
2024/01/28 04:27:36;;;;;;;18.80;12.40;;;;;;;-147.86;100.00;76601.20;105129;1269;72598;-58
2024/01/28 04:30:05;;;;;;;20.50;13.00;;;;;;;-147.86;100.00;76647.80;104963;1266;59730;-57
2024/01/28 04:32:34;;;;;;;19.30;11.90;;;;;;;-147.86;100.00;76550.66;105165;1267;59673;-57
2024/01/28 04:35:02;;;;;;;20.90;12.80;;;;;;;-147.86;100.00;76595.27;105173;1266;72004;-55
2024/01/28 04:37:30;;;;;;;20.40;12.60;;;;;;;-147.86;100.00;76771.00;105491;1262;63130;-55
2024/01/28 04:39:58;;;;;;;18.40;12.30;;;;;;;-147.86;100.00;76850.77;105487;1260;71450;-56
2024/01/28 04:42:26;;;;;;;24.00;13.70;;;;;;;-147.86;100.00;76783.63;105500;1260;59692;-57
2024/01/28 04:44:54;;;;;;;25.40;14.20;;;;;;;-147.86;100.00;76577.50;105467;1263;60017;-59
2024/01/28 04:47:21;;;;;;;19.70;12.50;;;;;;;-147.86;100.00;76575.52;105536;1262;72239;-58
2024/01/28 04:49:49;;;;;;;20.60;13.00;;;;;;;-147.86;100.00;76675.84;105548;1257;64655;-58
2024/01/28 04:52:17;;;;;;;21.50;13.60;;;;;;;-147.86;100.00;76494.97;105602;1260;71213;-57
2024/01/28 05:49:53;;;;;;;33.60;18.30;;;;;;;-147.86;100.00;83112.13;102778;1290;600280;-56
2024/01/28 05:52:22;;;;;;;35.70;20.00;;;;;;;-147.86;100.00;76398.25;105052;1264;59356;-59
2024/01/28 05:54:50;;;;;;;37.40;19.20;;;;;;;-147.86;100.00;76902.91;105043;1264;59628;-59
2024/01/28 05:57:17;;;;;;;37.70;19.70;;;;;;;-147.86;100.00;77281.25;105284;1261;72167;-59
2024/01/28 05:59:45;;;;;;;35.10;19.80;;;;;;;-147.86;100.00;77662.00;105245;1260;63197;-55
2024/01/28 06:02:13;;;;;;;40.90;20.60;;;;;;;-147.86;100.00;77893.46;105725;1257;70951;-58
2024/01/28 06:04:41;;;;;;;37.80;18.40;;;;;;;-147.86;100.00;77844.88;105756;1254;199609;-58
2024/01/28 06:07:09;;;;;;;39.00;20.50;;;;;;;-147.86;100.00;78296.80;105871;1256;59364;-57
2024/01/28 06:09:37;;;;;;;39.60;20.80;;;;;;;-147.86;100.00;78457.17;105848;1257;71041;-59
2024/01/28 06:12:05;;;;;;;44.00;20.50;;;;;;;-147.86;100.00;78533.03;105941;1256;64425;-60
2024/01/28 06:14:33;;;;;;;39.80;21.10;;;;;;;-147.86;100.00;78674.48;105926;1252;71406;-58
2024/01/28 06:17:03;;;;;;;38.90;20.70;;;;;;;-147.86;100.00;78820.27;105951;1252;61200;-59
2024/01/28 06:19:31;;;;;;;37.00;20.60;;;;;;;-147.86;100.00;78637.73;105962;1255;59589;-58
2024/01/28 06:22:02;;;;;;;38.40;20.20;;;;;;;-147.86;100.00;78635.75;105891;1251;71715;-59
2024/01/28 06:24:30;;;;;;;37.50;19.60;;;;;;;-147.86;100.00;78768.51;105953;1251;63119;-56
2024/01/28 06:26:58;;;;;;;37.90;19.50;;;;;;;-147.86;100.00;78741.24;105949;1251;71402;-58
2024/01/28 06:29:26;;;;;;;39.00;20.30;;;;;;;-147.86;100.00;78845.16;105996;1257;59714;-56
2024/01/28 06:31:54;;;;;;;38.50;19.20;;;;;;;-147.86;100.00;78989.38;105916;1257;59742;-55
2024/01/28 06:34:22;;;;;;;44.40;21.80;;;;;;;-147.86;100.00;79103.56;106022;1251;72267;-59
2024/01/28 06:36:51;;;;;;;42.80;21.60;;;;;;;-147.86;100.00;79237.51;105921;1251;63211;-57
2024/01/28 06:39:19;;;;;;;41.90;20.60;;;;;;;-147.86;100.00;79419.68;105988;1251;71287;-59
2024/01/28 06:41:48;;;;;;;40.20;20.40;;;;;;;-147.86;100.00;79659.14;105926;1256;59733;-58
2024/01/28 06:44:16;;;;;;;44.60;19.90;;;;;;;-147.86;100.00;79610.15;105977;1253;59648;-57
2024/01/28 06:46:44;;;;;;;43.80;21.50;;;;;;;-147.86;100.00;79560.75;105828;1254;71854;-59
2024/01/28 06:49:12;;;;;;;42.50;20.40;;;;;;;-147.86;100.00;79780.48;105864;1252;63584;-58
2024/01/28 06:51:44;;;;;;;42.40;21.50;;;;;;;-147.86;100.00;79829.48;105805;1254;71358;-58
2024/01/28 06:54:13;;;;;;;46.80;21.30;;;;;;;-147.86;100.00;79935.39;105822;1257;59756;-58
2024/01/28 06:56:42;;;;;;;44.70;22.30;;;;;;;-147.86;100.00;80093.88;105879;1253;60681;-57
2024/01/28 06:59:10;;;;;;;44.60;21.90;;;;;;;-147.86;100.00;80355.52;105871;1255;72983;-57
2024/01/28 07:01:37;;;;;;;44.00;21.80;;;;;;;-147.86;100.00;80450.77;105794;1257;63201;-57
2024/01/28 07:04:06;;;;;;;45.60;22.90;;;;;;;-147.86;100.00;80726.30;105817;1257;71408;-58
2024/01/28 07:06:34;;;;;;;46.80;23.10;;;;;;;-147.86;100.00;80877.69;105804;1254;59735;-59
2024/01/28 07:09:02;;;;;;;49.70;23.00;;;;;;;-147.86;100.00;80759.88;105834;1257;59553;-55
2024/01/28 07:11:30;;;;;;;40.10;20.60;;;;;;;-147.86;100.00;80817.99;105818;1254;71771;-58
2024/01/28 07:13:58;;;;;;;43.50;21.70;;;;;;;-147.86;100.00;80723.91;105839;1254;63199;-58
2024/01/28 07:16:26;;;;;;;48.90;22.90;;;;;;;-147.86;100.00;80837.36;105808;1255;71762;-57
2024/01/28 07:18:54;;;;;;;43.90;21.40;;;;;;;-147.86;100.00;80982.84;105778;1257;59800;-58
2024/01/28 07:21:22;;;;;;;44.00;21.00;;;;;;;-147.86;100.00;80972.55;105829;1257;59761;-57
2024/01/28 07:23:50;;;;;;;47.80;22.30;;;;;;;-147.86;100.00;80650.78;105828;1252;71739;-57
2024/01/28 07:26:17;;;;;;;46.50;22.10;;;;;;;-147.86;100.00;80631.42;105840;1256;63108;-56
2024/01/28 07:28:45;;;;;;;44.20;21.00;;;;;;;-147.86;100.00;80727.88;105811;1254;71424;-56
2024/01/28 07:31:13;;;;;;;43.50;22.60;;;;;;;-147.86;100.00;80908.13;105796;1257;59733;-58
2024/01/28 07:33:41;;;;;;;45.60;21.80;;;;;;;-147.86;100.00;80983.23;105803;1253;60387;-58
2024/01/28 07:36:08;;;;;;;43.90;22.00;;;;;;;-147.86;100.00;81201.45;105791;1253;71734;-57
2024/01/28 07:38:36;;;;;;;45.40;22.70;;;;;;;-147.86;100.00;81308.60;105818;1254;63245;-58
2024/01/28 07:41:04;;;;;;;46.60;23.00;;;;;;;-147.86;100.00;81327.57;105857;1256;70328;-59
2024/01/28 07:43:32;;;;;;;47.00;21.90;;;;;;;-147.86;100.00;81511.02;105837;1253;60050;-59
2024/01/28 07:45:59;;;;;;;50.00;23.00;;;;;;;-147.86;100.00;81629.23;105811;1257;59666;-56
2024/01/28 07:48:27;;;;;;;51.60;24.10;;;;;;;-147.86;100.00;81534.73;105807;1254;71758;-59
2024/01/28 07:50:55;;;;;;;47.90;23.60;;;;;;;-147.86;100.00;81355.63;105859;1253;63359;-57
2024/01/28 07:53:23;;;;;;;53.10;24.60;;;;;;;-147.86;100.00;81376.98;105834;1254;71432;-60
2024/01/28 07:55:51;;;;;;;49.00;23.90;;;;;;;-147.86;100.00;81478.20;105775;1255;59738;-59
2024/01/28 07:58:19;;;;;;;47.30;23.40;;;;;;;-147.86;100.00;81311.75;105765;1257;59695;-60
2024/01/28 08:00:47;;;;;;;47.70;23.40;;;;;;;-147.86;100.00;81261.95;105798;1254;72156;-60
2024/01/28 08:03:15;;;;;;;45.00;21.50;;;;;;;-147.86;100.00;81159.95;105863;1257;63096;-59
2024/01/28 08:05:42;;;;;;;49.10;23.20;;;;;;;-147.86;100.00;81252.45;105822;1254;71414;-57
2024/01/28 08:08:11;;;;;;;50.40;24.00;;;;;;;-147.86;100.00;81335.46;105804;1253;60467;-59
2024/01/28 08:10:43;;;;;;;46.10;22.40;;;;;;;-147.86;100.00;81046.09;105810;1257;59636;-60
2024/01/28 08:13:10;;;;;;;46.60;22.50;;;;;;;-147.86;100.00;81106.96;105852;1253;71843;-57
2024/01/28 08:15:38;;;;;;;50.30;24.60;;;;;;;-147.86;100.00;81190.39;105778;1253;62683;-56
2024/01/28 08:18:06;;;;;;;49.30;24.30;;;;;;;-147.86;100.00;81184.05;105844;1254;71457;-55
2024/01/28 08:20:34;;;;;;;55.30;24.50;;;;;;;-147.86;100.00;81268.66;105832;1257;59854;-58
2024/01/28 08:23:03;;;;;;;53.20;25.20;;;;;;;-147.86;100.00;81210.54;105829;1254;59737;-57
2024/01/28 08:25:31;;;;;;;55.80;25.60;;;;;;;-147.86;100.00;81143.35;105797;1254;71681;-58
2024/01/28 08:27:59;;;;;;;60.20;27.70;;;;;;;-147.86;100.00;81226.77;105856;1257;63156;-57
2024/01/28 08:30:27;;;;;;;60.70;28.40;;;;;;;-147.86;100.00;81194.73;105777;1254;72614;-58
2024/01/28 08:32:55;;;;;;;66.90;28.60;;;;;;;-147.86;100.00;81271.05;105811;1257;60879;-55
2024/01/28 08:35:23;;;;;;;69.00;29.40;;;;;;;-147.86;100.00;81498.76;105853;1252;60242;-59
2024/01/28 08:37:51;;;;;;;65.80;29.00;;;;;;;-147.86;100.00;81393.59;105792;1254;71989;-59
2024/01/28 08:40:19;;;;;;;60.10;26.80;;;;;;;-147.86;100.00;81451.32;105818;1254;63186;-60
2024/01/28 08:42:46;;;;;;;64.10;29.60;;;;;;;-147.86;100.00;81344.56;105852;1254;71474;-57
2024/01/28 08:45:14;;;;;;;65.70;29.80;;;;;;;-147.86;100.00;81331.13;105801;1254;59762;-60
2024/01/28 08:47:42;;;;;;;65.40;29.50;;;;;;;-147.86;100.00;81345.76;105785;1257;59625;-60
2024/01/28 08:50:10;;;;;;;60.20;29.20;;;;;;;-147.86;100.00;81426.41;105842;1252;72996;-58
2024/01/28 09:49:11;;;;;;;47.60;22.30;;;;;;;-147.86;100.00;84311.88;102938;1294;601066;-55
2024/01/28 09:51:39;;;;;;;46.80;22.90;;;;;;;-147.86;100.00;77710.21;105064;1264;60875;-58
2024/01/28 09:54:08;;;;;;;45.60;21.20;;;;;;;-147.86;100.00;78215.80;105066;1264;59369;-58
2024/01/28 09:56:36;;;;;;;53.80;23.40;;;;;;;-147.86;100.00;78431.90;105537;1264;70947;-58
2024/01/28 09:59:08;;;;;;;52.40;24.40;;;;;;;-147.86;100.00;78832.12;105550;1258;64495;-60
2024/01/28 10:01:35;;;;;;;48.00;23.50;;;;;;;-147.86;100.00;78960.53;105453;1271;205598;-57
2024/01/28 10:04:03;;;;;;;47.70;22.70;;;;;;;-147.86;100.00;78907.18;105640;1259;59835;-56
2024/01/28 10:06:32;;;;;;;49.80;22.90;;;;;;;-147.86;100.00;79031.65;105663;1261;59323;-56
2024/01/28 10:09:00;;;;;;;55.30;23.80;;;;;;;-147.86;100.00;78885.05;105657;1254;72252;-57
2024/01/28 10:11:28;;;;;;;48.00;22.50;;;;;;;-147.86;100.00;78774.44;105680;1260;64569;-58
2024/01/28 10:13:56;;;;;;;60.10;25.80;;;;;;;-147.86;100.00;78650.77;105640;1257;71459;-59
2024/01/28 10:16:24;;;;;;;57.20;24.90;;;;;;;-147.86;100.00;78418.08;105689;1258;59774;-56
2024/01/28 10:18:52;;;;;;;46.00;20.20;;;;;;;-147.86;100.00;78152.60;105704;1260;59633;-55
2024/01/28 10:21:20;;;;;;;57.90;25.50;;;;;;;-147.86;100.00;78053.05;105711;1254;71745;-57
2024/01/28 10:50:13;;;;;;;55.00;27.40;;;;;;;-147.86;100.00;83016.08;102435;1296;603401;-59
2024/01/28 10:52:41;;;;;;;48.70;24.20;;;;;;;-147.86;100.00;75302.69;104995;1266;61079;-57
2024/01/28 10:55:08;;;;;;;51.70;24.80;;;;;;;-147.86;100.00;75773.62;104929;1265;60212;-60
2024/01/28 10:57:36;;;;;;;45.10;23.40;;;;;;;-147.86;100.00;76113.95;104742;1267;72342;-58
2024/01/28 11:00:05;;;;;;;42.30;21.70;;;;;;;-147.86;100.00;75989.58;105014;1269;64576;-58
2024/01/28 11:02:34;;;;;;;39.90;21.30;;;;;;;-147.86;100.00;75503.18;104381;1270;743071;-57
2024/01/28 11:05:04;;;;;;;44.90;22.30;;;;;;;-147.86;100.00;75162.52;105246;1264;59881;-58
2024/01/28 11:07:31;;;;;;;39.80;21.90;;;;;;;-147.86;100.00;75285.30;105135;1264;60340;-58
2024/01/28 11:09:59;;;;;;;41.40;24.00;;;;;;;-147.86;100.00;75683.22;105182;1264;72173;-55
2024/01/28 11:12:27;;;;;;;49.30;25.30;;;;;;;-147.86;100.00;75585.30;105241;1263;65930;-59
2024/01/28 11:14:58;;;;;;;41.60;22.30;;;;;;;-147.86;100.00;75411.61;105210;1263;72910;-60
2024/01/28 11:17:33;;;;;;;42.30;22.00;;;;;;;-147.86;100.00;75121.08;105239;1267;60957;-59
2024/01/28 11:20:07;;;;;;;41.80;22.50;;;;;;;-147.86;100.00;74981.35;105668;1254;60349;-56
2024/01/28 11:22:53;;;;;;;43.20;22.70;;;;;;;-147.86;100.00;74785.58;105668;1257;73022;-59
2024/01/28 11:25:22;;;;;;;45.60;23.40;;;;;;;-147.86;100.00;74098.87;105702;1259;64520;-57
2024/01/28 11:27:50;;;;;;;48.00;24.00;;;;;;;-147.86;100.00;74533.36;105650;1255;71386;-58
2024/01/28 11:30:21;;;;;;;42.90;23.10;;;;;;;-147.86;100.00;74364.04;105658;1254;60616;-60
2024/01/28 11:32:50;;;;;;;45.60;23.40;;;;;;;-147.86;100.00;74081.09;105712;1257;59976;-60
2024/01/28 11:35:17;;;;;;;42.70;23.30;;;;;;;-147.86;100.00;73863.64;105685;1260;72096;-60
2024/01/28 11:37:51;;;;;;;41.70;22.10;;;;;;;-147.86;100.00;73635.55;105692;1258;64625;-58
2024/01/28 11:40:30;;;;;;;45.50;22.70;;;;;;;-147.86;100.00;73089.10;105674;1261;73880;-59
2024/01/28 11:42:57;;;;;;;41.60;22.10;;;;;;;-147.86;100.00;72735.63;105627;1254;60424;-59
2024/01/28 11:45:25;;;;;;;43.60;22.00;;;;;;;-147.86;100.00;72750.20;105627;1254;60265;-60
2024/01/28 11:47:52;;;;;;;36.90;21.10;;;;;;;-147.86;100.00;72584.91;105725;1253;73714;-59
2024/01/28 11:50:19;;;;;;;37.20;19.60;;;;;;;-147.86;100.00;72422.39;105678;1257;63236;-60
2024/01/28 11:52:46;;;;;;;41.00;20.30;;;;;;;-147.86;100.00;72289.05;105617;1254;74024;-57
2024/01/28 11:55:14;;;;;;;39.60;20.90;;;;;;;-147.86;100.00;71799.55;105607;1259;61157;-57
2024/01/28 11:57:43;;;;;;;38.20;21.20;;;;;;;-147.86;100.00;71749.88;105684;1254;61387;-57
2024/01/28 12:00:11;;;;;;;35.50;18.80;;;;;;;-147.86;100.00;71232.83;105661;1258;72104;-58
2024/01/28 12:02:39;;;;;;;37.10;19.70;;;;;;;-147.86;100.00;70958.77;105660;1257;64010;-59
2024/01/28 12:05:10;;;;;;;35.30;19.10;;;;;;;-147.86;100.00;70553.83;105632;1254;71162;-58
2024/01/28 12:07:37;;;;;;;31.40;18.80;;;;;;;-147.86;100.00;70524.64;105642;1258;61188;-58
2024/01/28 12:10:10;;;;;;;31.90;17.70;;;;;;;-147.86;100.00;70585.36;105656;1254;60420;-60
2024/01/28 12:12:37;;;;;;;32.10;18.40;;;;;;;-147.86;100.00;69876.89;105652;1256;72758;-57
2024/01/28 12:15:05;;;;;;;30.60;16.10;;;;;;;-147.86;100.00;69663.63;105670;1254;64079;-59
2024/01/28 12:17:37;;;;;;;25.30;16.20;;;;;;;-147.86;100.00;69701.48;105560;1260;72234;-60
2024/01/28 12:20:05;;;;;;;27.30;15.90;;;;;;;-147.86;100.00;69364.84;105687;1254;60628;-57
2024/01/28 12:22:39;;;;;;;28.30;16.30;;;;;;;-147.86;100.00;68745.63;105740;1255;61406;-55
2024/01/28 12:25:10;;;;;;;24.30;15.40;;;;;;;-147.86;100.00;68261.72;105658;1254;72961;-57
2024/01/28 12:27:38;;;;;;;29.70;16.60;;;;;;;-147.86;100.00;67766.80;105719;1258;64673;-60
2024/01/28 12:30:11;;;;;;;23.20;14.20;;;;;;;-147.86;100.00;67792.42;105568;1253;72791;-60
2024/01/28 12:32:39;;;;;;;25.10;14.70;;;;;;;-147.86;100.00;67127.77;105670;1259;62670;-58
2024/01/28 12:35:09;;;;;;;26.30;14.50;;;;;;;-147.86;100.00;66538.06;105655;1254;61698;-60
2024/01/28 12:37:37;;;;;;;26.50;15.00;;;;;;;-147.86;100.00;65985.48;105654;1254;73139;-60
2024/01/28 12:40:06;;;;;;;24.90;14.70;;;;;;;-147.86;100.00;65992.58;105644;1257;66020;-57
2024/01/28 12:42:38;;;;;;;22.40;14.10;;;;;;;-147.86;100.00;65507.39;105661;1254;72775;-58
2024/01/28 12:45:06;;;;;;;26.30;14.50;;;;;;;-147.86;100.00;64959.29;105603;1254;61314;-59
2024/01/28 12:47:36;;;;;;;20.50;12.90;;;;;;;-147.86;100.00;65101.83;105661;1254;60250;-55
2024/01/28 12:50:05;;;;;;;21.90;13.10;;;;;;;-147.86;100.00;65241.21;105652;1257;72650;-59
2024/01/28 12:52:33;;;;;;;24.60;13.60;;;;;;;-147.86;100.00;64569.11;105714;1254;63280;-60
2024/01/28 12:55:00;;;;;;;21.00;12.80;;;;;;;-147.86;100.00;64501.80;105663;1257;72660;-59
2024/01/28 12:57:28;;;;;;;24.90;13.30;;;;;;;-147.86;100.00;64321.89;105639;1258;61005;-59
2024/01/28 12:59:55;;;;;;;23.20;12.90;;;;;;;-147.86;100.00;63924.69;105736;1254;60226;-60
2024/01/28 13:02:22;;;;;;;22.60;14.10;;;;;;;-147.86;100.00;63865.65;105628;1257;74179;-58
2024/01/28 13:04:49;;;;;;;22.00;12.70;;;;;;;-147.86;100.00;63702.29;105558;1258;63297;-56
2024/01/28 13:07:18;;;;;;;19.70;12.80;;;;;;;-147.86;100.00;62915.54;105335;1260;72818;-56
2024/01/28 13:09:45;;;;;;;17.80;12.10;;;;;;;-147.86;100.00;62502.76;105555;1258;61660;-59
2024/01/28 13:12:12;;;;;;;17.30;11.90;;;;;;;-147.86;100.00;62349.29;105666;1254;61451;-59
2024/01/28 13:14:40;;;;;;;19.70;12.70;;;;;;;-147.86;100.00;61919.25;105662;1254;74079;-58
2024/01/28 13:17:07;;;;;;;20.70;12.40;;;;;;;-147.86;100.00;61710.74;105603;1259;64565;-59
2024/01/28 13:19:34;;;;;;;17.20;11.60;;;;;;;-147.86;100.00;61593.89;105659;1254;72674;-58
2024/01/28 13:22:01;;;;;;;18.60;10.80;;;;;;;-147.86;100.00;61327.57;105626;1259;61169;-60
2024/01/28 13:24:29;;;;;;;20.90;12.20;;;;;;;-147.86;100.00;60780.03;105615;1254;60123;-58
2024/01/28 13:26:56;;;;;;;20.50;12.20;;;;;;;-147.86;100.00;60112.23;105640;1258;73278;-56
2024/01/28 13:29:25;;;;;;;20.80;12.70;;;;;;;-147.86;100.00;59244.02;105647;1258;63865;-59
2024/01/28 13:31:52;;;;;;;24.10;12.00;;;;;;;-147.86;100.00;58921.25;105657;1254;72851;-59
2024/01/28 13:34:19;;;;;;;21.40;13.00;;;;;;;-147.86;100.00;58461.30;105664;1259;59963;-60